createdAt,value
2019-02-19T00:00:35.957Z,83.10
2019-02-19T00:03:06.801Z,84.10
2019-02-19T00:05:37.717Z,83.90
2019-02-19T00:08:09.494Z,84.10
2019-02-19T00:10:40.097Z,84.50
2019-02-19T00:13:10.678Z,85.50
2019-02-19T00:16:01.533Z,85.70
2019-02-19T00:18:32.134Z,85.00
2019-02-19T00:21:03.042Z,85.40
2019-02-19T00:23:33.640Z,85.50
2019-02-19T00:26:05.430Z,85.80
2019-02-19T00:28:35.921Z,86.20
2019-02-19T00:31:06.660Z,86.80
2019-02-19T00:33:37.597Z,88.00
2019-02-19T00:36:08.156Z,87.70
2019-02-19T00:38:38.861Z,87.80
2019-02-19T00:41:09.410Z,88.10
2019-02-19T00:43:39.963Z,88.10
2019-02-19T00:46:10.624Z,87.90
2019-02-19T00:48:41.229Z,87.90
2019-02-19T00:51:18.384Z,88.00
2019-02-19T00:53:48.912Z,88.10
2019-02-19T00:56:40.037Z,88.20
2019-02-19T00:59:10.796Z,88.20
2019-02-19T01:01:41.441Z,88.40
2019-02-19T01:04:46.809Z,88.70
2019-02-19T01:07:17.408Z,88.60
2019-02-19T01:09:47.905Z,88.10
2019-02-19T01:12:23.077Z,88.20
2019-02-19T01:14:53.917Z,88.20
2019-02-19T01:17:24.510Z,88.40
2019-02-19T01:19:55.254Z,88.50
2019-02-19T01:22:26.343Z,88.30
2019-02-19T01:24:56.855Z,88.10
2019-02-19T01:27:27.560Z,87.60
2019-02-19T01:29:58.092Z,87.50
2019-02-19T01:32:28.662Z,87.40
2019-02-19T01:35:44.550Z,87.80
2019-02-19T01:38:15.287Z,86.80
2019-02-19T01:40:46.083Z,85.30
2019-02-19T01:43:16.643Z,80.40
2019-02-19T01:46:07.800Z,78.10
2019-02-19T01:48:38.367Z,78.70
2019-02-19T01:51:09.035Z,78.30
2019-02-19T01:53:39.830Z,77.90
2019-02-19T01:56:10.380Z,77.30
2019-02-19T01:58:40.823Z,76.00
2019-02-19T02:01:11.613Z,76.20
2019-02-19T02:03:42.292Z,76.40
2019-02-19T02:06:12.938Z,76.40
2019-02-19T02:08:43.735Z,77.10
2019-02-19T02:11:14.288Z,75.20
2019-02-19T02:13:44.832Z,75.20
2019-02-19T02:16:15.509Z,76.20
2019-02-19T02:18:46.130Z,75.30
2019-02-19T02:21:16.829Z,75.00
2019-02-19T02:23:48.053Z,74.20
2019-02-19T02:26:18.836Z,73.40
2019-02-19T02:28:49.568Z,74.00
2019-02-19T02:31:20.268Z,74.40
2019-02-19T02:33:50.772Z,75.30
2019-02-19T02:36:21.718Z,73.00
2019-02-19T02:38:52.653Z,72.30
2019-02-19T02:41:23.309Z,71.40
2019-02-19T02:43:54.134Z,70.80
2019-02-19T02:46:26.057Z,71.10
2019-02-19T02:48:56.719Z,71.60
2019-02-19T02:51:27.268Z,72.40
2019-02-19T02:54:17.876Z,71.90
2019-02-19T02:56:48.552Z,70.40
2019-02-19T02:59:19.309Z,70.00
2019-02-19T03:01:50.122Z,68.50
2019-02-19T03:04:20.681Z,68.50
2019-02-19T03:07:44.639Z,69.40
2019-02-19T03:11:09.748Z,69.90
2019-02-19T03:13:42.132Z,70.30
2019-02-19T03:16:12.685Z,69.70
2019-02-19T03:18:43.317Z,68.30
2019-02-19T03:21:15.273Z,67.50
2019-02-19T03:23:46.132Z,68.10
2019-02-19T03:26:17.156Z,68.10
2019-02-19T03:28:47.953Z,67.10
2019-02-19T03:31:18.929Z,65.40
2019-02-19T03:33:49.635Z,65.80
2019-02-19T03:36:20.637Z,66.40
2019-02-19T03:38:51.564Z,66.20
2019-02-19T03:41:26.071Z,66.40
2019-02-19T03:43:56.708Z,65.60
2019-02-19T03:46:27.264Z,65.20
2019-02-19T03:48:58.360Z,66.00
2019-02-19T03:51:28.902Z,65.80
2019-02-19T03:53:59.655Z,65.20
2019-02-19T03:56:30.869Z,65.10
2019-02-19T03:59:02.775Z,65.70
2019-02-19T04:01:33.286Z,65.00
2019-02-19T04:04:04.076Z,65.00
2019-02-19T04:06:36.460Z,64.80
2019-02-19T04:09:08.470Z,65.20
2019-02-19T04:11:39.430Z,64.40
2019-02-19T04:14:10.385Z,64.20
2019-02-19T04:16:43.372Z,62.50
2019-02-19T04:19:16.254Z,62.90
2019-02-19T04:21:48.841Z,63.20
2019-02-19T04:24:19.450Z,62.30
2019-02-19T04:26:51.471Z,62.40
2019-02-19T04:29:22.637Z,63.00
2019-02-19T04:31:54.062Z,62.80
2019-02-19T04:34:24.988Z,61.40
2019-02-19T04:36:55.468Z,60.60
2019-02-19T04:39:26.149Z,60.80
2019-02-19T04:41:57.195Z,61.40
2019-02-19T04:44:27.876Z,61.20
2019-02-19T04:46:58.424Z,60.80
2019-02-19T04:49:29.122Z,61.10
2019-02-19T04:51:59.781Z,60.00
2019-02-19T04:54:30.325Z,60.30
2019-02-19T04:57:00.980Z,60.30
2019-02-19T04:59:31.551Z,59.80
2019-02-19T05:02:11.397Z,59.60
2019-02-19T05:04:42.071Z,59.10
2019-02-19T05:07:13.002Z,59.70
2019-02-19T05:09:49.282Z,59.30
2019-02-19T05:12:38.799Z,59.50
2019-02-19T05:15:11.991Z,59.60
2019-02-19T05:17:42.577Z,59.50
2019-02-19T05:20:13.072Z,59.30
2019-02-19T05:22:43.823Z,59.10
2019-02-19T05:25:14.401Z,60.80
2019-02-19T05:30:35.568Z,57.90
2019-02-19T05:33:06.142Z,57.30
2019-02-19T05:35:36.670Z,57.50
2019-02-19T05:38:07.363Z,57.20
2019-02-19T05:40:37.817Z,56.00
2019-02-19T05:43:08.731Z,56.70
2019-02-19T05:45:39.457Z,56.60
2019-02-19T05:48:10.039Z,57.20
2019-02-19T05:50:40.583Z,58.40
2019-02-19T05:53:11.371Z,58.40
2019-02-19T05:55:42.048Z,58.20
2019-02-19T05:58:12.595Z,56.80
2019-02-19T06:00:43.415Z,56.50
2019-02-19T06:03:14.255Z,56.90
2019-02-19T06:05:44.854Z,56.80
2019-02-19T06:08:15.692Z,57.40
2019-02-19T06:10:46.446Z,56.60
2019-02-19T06:13:17.130Z,56.90
2019-02-19T06:15:48.019Z,56.20
2019-02-19T06:18:18.671Z,56.20
2019-02-19T06:20:49.211Z,56.30
2019-02-19T06:23:19.980Z,56.60
2019-02-19T06:25:52.114Z,57.40
2019-02-19T06:28:23.579Z,56.20
2019-02-19T06:30:55.523Z,56.40
2019-02-19T06:33:26.357Z,55.50
2019-02-19T06:35:57.257Z,55.00
2019-02-19T06:38:28.028Z,55.70
2019-02-19T06:40:58.646Z,54.80
2019-02-19T06:43:30.963Z,55.70
2019-02-19T06:46:01.856Z,54.90
2019-02-19T06:48:32.409Z,54.60
2019-02-19T06:51:03.142Z,54.30
2019-02-19T06:53:33.675Z,54.50
2019-02-19T06:56:04.316Z,55.10
2019-02-19T06:58:34.978Z,55.50
2019-02-19T07:01:05.760Z,54.80
2019-02-19T07:03:37.668Z,53.90
2019-02-19T07:06:08.460Z,54.70
2019-02-19T07:08:39.097Z,55.00
2019-02-19T07:11:09.613Z,54.30
2019-02-19T07:13:40.308Z,54.00
2019-02-19T07:16:11.932Z,53.70
2019-02-19T07:18:43.974Z,53.90
2019-02-19T07:21:14.494Z,52.90
2019-02-19T07:23:45.056Z,54.10
2019-02-19T07:26:15.721Z,54.30
2019-02-19T07:28:46.327Z,54.40
2019-02-19T07:31:17.149Z,53.40
2019-02-19T07:33:47.855Z,53.80
2019-02-19T07:36:18.436Z,52.90
2019-02-19T07:38:49.169Z,53.20
2019-02-19T07:41:19.976Z,52.70
2019-02-19T07:43:50.636Z,53.20
2019-02-19T07:46:21.375Z,52.80
2019-02-19T07:48:52.525Z,53.90
2019-02-19T07:51:23.141Z,53.90
2019-02-19T07:53:53.654Z,54.10
2019-02-19T07:56:24.339Z,53.90
2019-02-19T07:58:54.944Z,54.60
2019-02-19T08:01:25.466Z,54.80
2019-02-19T08:03:56.284Z,54.30
2019-02-19T08:06:27.383Z,55.10
2019-02-19T08:08:58.003Z,55.20
2019-02-19T08:11:28.780Z,54.90
2019-02-19T08:13:59.358Z,55.10
2019-02-19T08:16:29.866Z,55.50
2019-02-19T08:19:00.591Z,55.30
2019-02-19T08:21:31.158Z,55.80
2019-02-19T08:24:01.790Z,55.40
2019-02-19T08:26:32.595Z,55.80
2019-02-19T08:29:13.236Z,55.00
2019-02-19T08:31:35.685Z,54.90
2019-02-19T08:34:06.256Z,54.60
2019-02-19T08:36:36.771Z,54.70
2019-02-19T08:39:07.596Z,54.70
2019-02-19T08:41:38.158Z,54.60
2019-02-19T08:44:08.687Z,54.90
2019-02-19T08:46:39.391Z,54.70
2019-02-19T08:49:10.379Z,54.70
2019-02-19T08:51:40.900Z,55.00
2019-02-19T08:54:11.653Z,55.30
2019-02-19T08:56:42.268Z,55.20
2019-02-19T08:59:12.906Z,55.10
2019-02-19T09:05:26.571Z,54.00
2019-02-19T09:07:57.226Z,53.60
2019-02-19T09:10:27.804Z,54.50
2019-02-19T09:12:58.363Z,55.00
2019-02-19T09:15:29.260Z,54.30
2019-02-19T09:17:59.792Z,55.60
2019-02-19T09:20:30.370Z,55.30
2019-02-19T09:23:01.104Z,55.10
2019-02-19T09:25:31.837Z,55.10
2019-02-19T09:28:02.563Z,55.20
2019-02-19T09:30:33.512Z,56.00
2019-02-19T09:33:04.251Z,56.30
2019-02-19T09:35:34.983Z,57.10
2019-02-19T09:38:05.749Z,57.90
2019-02-19T09:40:36.339Z,57.80
2019-02-19T09:43:07.011Z,57.90
2019-02-19T09:45:38.812Z,57.20
2019-02-19T09:48:09.585Z,56.80
2019-02-19T09:50:40.831Z,56.50
2019-02-19T09:53:11.714Z,58.00
2019-02-19T09:55:43.802Z,58.00
2019-02-19T09:58:14.249Z,58.60
2019-02-19T10:00:44.956Z,58.80
2019-02-19T10:03:15.616Z,59.20
2019-02-19T10:05:48.023Z,59.70
2019-02-19T10:08:18.489Z,60.20
2019-02-19T10:10:49.067Z,60.50
2019-02-19T10:13:19.594Z,61.40
2019-02-19T10:15:50.262Z,60.20
2019-02-19T10:18:20.856Z,61.00
2019-02-19T10:20:51.817Z,60.60
2019-02-19T10:23:22.700Z,60.30
2019-02-19T10:25:53.378Z,61.40
2019-02-19T10:28:24.740Z,61.20
2019-02-19T10:30:55.515Z,61.90
2019-02-19T10:33:26.184Z,61.90
2019-02-19T10:35:56.697Z,61.40
2019-02-19T10:38:27.532Z,62.20
2019-02-19T10:40:58.098Z,62.30
2019-02-19T10:43:28.615Z,61.80
2019-02-19T10:45:59.404Z,63.00
2019-02-19T10:49:06.261Z,63.30
2019-02-19T10:51:37.566Z,63.60
2019-02-19T10:57:14.593Z,63.60
2019-02-19T10:59:45.228Z,64.30
2019-02-19T11:02:15.877Z,64.40
2019-02-19T11:04:46.553Z,65.20
2019-02-19T11:07:17.146Z,65.10
2019-02-19T11:09:47.954Z,65.70
2019-02-19T11:12:18.679Z,66.20
2019-02-19T11:14:49.344Z,66.30
2019-02-19T11:17:20.012Z,66.20
2019-02-19T11:19:50.753Z,66.70
2019-02-19T11:22:21.317Z,67.10
2019-02-19T11:24:51.860Z,66.70
2019-02-19T11:27:22.713Z,67.10
2019-02-19T11:29:53.454Z,67.20
2019-02-19T11:32:26.279Z,66.50
2019-02-19T11:34:59.036Z,65.70
2019-02-19T11:37:29.352Z,66.50
2019-02-19T11:40:20.126Z,66.40
2019-02-19T11:42:50.768Z,66.60
2019-02-19T11:45:21.513Z,67.10
2019-02-19T11:47:52.191Z,67.20
2019-02-19T11:50:22.765Z,68.00
2019-02-19T11:52:53.505Z,69.10
2019-02-19T11:55:24.297Z,69.10
2019-02-19T11:57:54.969Z,69.70
2019-02-19T12:00:33.176Z,69.50
2019-02-19T12:03:03.714Z,69.40
2019-02-19T12:05:34.346Z,69.50
2019-02-19T12:08:05.021Z,69.90
2019-02-19T12:10:35.625Z,69.90
2019-02-19T12:13:06.248Z,70.00
2019-02-19T12:15:36.927Z,70.00
2019-02-19T12:18:07.518Z,70.10
2019-02-19T12:20:38.041Z,70.40
2019-02-19T12:23:08.755Z,70.50
2019-02-19T12:25:39.285Z,70.70
2019-02-19T12:28:09.913Z,71.10
2019-02-19T12:30:40.751Z,70.70
2019-02-19T12:33:11.384Z,70.70
2019-02-19T12:35:42.220Z,70.90
2019-02-19T12:38:12.983Z,70.80
2019-02-19T12:40:43.490Z,70.70
2019-02-19T12:43:16.580Z,70.90
2019-02-19T12:46:07.309Z,71.20
2019-02-19T12:48:38.224Z,71.50
2019-02-19T12:51:08.688Z,71.60
2019-02-19T12:53:50.079Z,72.20
2019-02-19T12:56:20.723Z,72.50
2019-02-19T12:58:51.380Z,72.90
2019-02-19T13:01:21.969Z,73.00
2019-02-19T13:03:52.639Z,72.60
2019-02-19T13:06:23.494Z,72.80
2019-02-19T13:08:54.215Z,72.70
2019-02-19T13:14:30.819Z,72.50
2019-02-19T13:17:01.717Z,72.40
2019-02-19T13:19:32.335Z,72.90
2019-02-19T13:22:21.831Z,73.00
2019-02-19T13:24:52.443Z,72.90
2019-02-19T13:27:24.326Z,73.20
2019-02-19T13:29:56.359Z,73.40
2019-02-19T13:32:27.253Z,73.50
2019-02-19T13:34:57.863Z,73.60
2019-02-19T13:37:30.608Z,73.70
2019-02-19T13:40:01.067Z,73.90
2019-02-19T13:42:32.758Z,74.10
2019-02-19T13:45:03.540Z,74.60
2019-02-19T13:47:34.088Z,75.00
2019-02-19T13:50:04.621Z,75.20
2019-02-19T13:52:37.884Z,74.80
2019-02-19T13:55:10.458Z,74.90
2019-02-19T13:57:44.995Z,74.50
2019-02-19T14:00:19.941Z,74.50
2019-02-19T14:02:53.641Z,74.60
2019-02-19T14:05:26.713Z,74.60
2019-02-19T14:07:57.565Z,74.80
2019-02-19T14:10:29.637Z,74.70
2019-02-19T14:13:01.619Z,74.60
2019-02-19T14:15:46.052Z,74.70
2019-02-19T14:18:18.371Z,75.00
2019-02-19T14:20:54.381Z,75.00
2019-02-19T14:23:26.586Z,75.20
2019-02-19T14:26:15.137Z,75.50
2019-02-19T14:28:59.761Z,75.50
2019-02-19T14:31:34.817Z,75.60
2019-02-19T14:34:09.746Z,75.70
2019-02-19T14:36:44.790Z,75.70
2019-02-19T14:39:18.000Z,76.00
2019-02-19T14:42:01.331Z,76.30
2019-02-19T14:44:39.483Z,76.20
2019-02-19T14:47:14.373Z,76.30
2019-02-19T14:49:47.598Z,76.60
2019-02-19T14:52:37.041Z,76.30
2019-02-19T14:55:11.974Z,76.00
2019-02-19T14:57:44.176Z,76.10
2019-02-19T15:00:32.785Z,76.00
2019-02-19T15:03:04.810Z,75.90
2019-02-19T15:05:51.481Z,76.00
2019-02-19T15:08:29.915Z,75.70
2019-02-19T15:11:14.427Z,75.70
2019-02-19T15:14:02.110Z,75.50
2019-02-19T15:16:34.297Z,75.50
2019-02-19T15:19:06.377Z,75.90
2019-02-19T15:21:51.102Z,76.40
2019-02-19T15:24:24.518Z,76.50
2019-02-19T15:26:58.442Z,76.70
2019-02-19T15:29:39.694Z,76.80
2019-02-19T15:33:05.687Z,76.60
2019-02-19T15:35:43.939Z,76.40
2019-02-19T15:38:19.177Z,76.20
2019-02-19T15:40:54.418Z,76.40
2019-02-19T15:43:32.939Z,76.80
2019-02-19T15:46:10.689Z,77.00
2019-02-19T15:48:46.924Z,76.90
2019-02-19T15:51:25.055Z,76.40
2019-02-19T15:53:57.833Z,76.40
2019-02-19T15:56:30.070Z,76.50
2019-02-19T15:59:05.612Z,76.20
2019-02-19T16:01:47.003Z,76.00
2019-02-19T16:04:22.343Z,75.80
2019-02-19T16:07:11.100Z,75.10
2019-02-19T16:09:43.479Z,74.70
2019-02-19T16:12:22.298Z,74.30
2019-02-19T16:15:00.796Z,74.30
2019-02-19T16:17:54.182Z,74.40
2019-02-19T16:23:12.142Z,75.10
2019-02-19T16:25:53.889Z,75.00
2019-02-19T16:28:25.937Z,75.50
2019-02-19T16:30:58.338Z,75.50
2019-02-19T16:33:33.667Z,75.60
2019-02-19T16:36:05.952Z,75.50
2019-02-19T16:38:47.321Z,75.10
2019-02-19T16:41:37.874Z,75.30
2019-02-19T16:44:10.479Z,75.40
2019-02-19T16:49:54.523Z,75.80
2019-02-19T16:52:35.509Z,76.30
2019-02-19T16:55:08.166Z,76.40
2019-02-19T16:57:42.975Z,76.50
2019-02-19T17:00:37.868Z,77.10
2019-02-19T17:03:28.200Z,77.20
2019-02-19T17:06:00.097Z,77.10
2019-02-19T17:08:35.720Z,77.20
2019-02-19T17:11:07.787Z,77.20
2019-02-19T17:13:46.309Z,77.40
2019-02-19T17:16:18.259Z,77.30
2019-02-19T17:18:53.823Z,77.30
2019-02-19T17:21:44.036Z,77.20
2019-02-19T17:24:19.455Z,77.30
2019-02-19T17:27:06.887Z,77.60
2019-02-19T17:29:45.197Z,77.50
2019-02-19T17:32:23.332Z,77.80
2019-02-19T17:35:01.618Z,77.80
2019-02-19T17:37:36.580Z,78.20
2019-02-19T17:40:10.291Z,78.10
2019-02-19T17:42:42.538Z,78.60
2019-02-19T17:45:18.476Z,78.50
2019-02-19T17:47:59.777Z,78.90
2019-02-19T17:50:38.438Z,79.00
2019-02-19T17:53:14.933Z,79.50
2019-02-19T17:56:02.290Z,79.70
2019-02-19T17:58:34.280Z,79.80
2019-02-19T18:01:06.508Z,79.80
2019-02-19T18:03:41.561Z,80.30
2019-02-19T18:06:13.687Z,80.40
2019-02-19T18:08:54.646Z,80.50
2019-02-19T18:11:44.879Z,81.50
2019-02-19T18:14:16.796Z,80.70
2019-02-19T18:16:49.351Z,80.80
2019-02-19T18:19:19.929Z,80.80
2019-02-19T18:21:56.543Z,80.70
2019-02-19T18:24:27.269Z,80.80
2019-02-19T18:26:57.896Z,80.90
2019-02-19T18:29:28.732Z,81.40
2019-02-19T18:31:59.382Z,81.10
2019-02-19T18:34:30.003Z,80.90
2019-02-19T18:37:00.812Z,80.90
2019-02-19T18:39:31.481Z,80.60
2019-02-19T18:42:01.995Z,80.70
2019-02-19T18:44:32.803Z,80.50
2019-02-19T18:47:03.678Z,81.10
2019-02-19T18:49:34.311Z,81.10
2019-02-19T18:52:04.993Z,81.10
2019-02-19T18:54:35.573Z,81.10
2019-02-19T18:57:06.097Z,81.40
2019-02-19T18:59:37.268Z,81.50
2019-02-19T19:02:08.254Z,81.20
2019-02-19T19:04:38.944Z,81.40
2019-02-19T19:07:09.620Z,81.40
2019-02-19T19:09:40.184Z,81.30
2019-02-19T19:12:10.900Z,81.10
2019-02-19T19:14:41.779Z,81.20
2019-02-19T19:17:12.416Z,81.30
2019-02-19T19:19:42.922Z,81.30
2019-02-19T19:22:13.705Z,81.10
2019-02-19T19:24:44.205Z,80.90
2019-02-19T19:27:14.733Z,80.70
2019-02-19T19:29:45.684Z,81.00
2019-02-19T19:32:16.418Z,81.30
2019-02-19T19:34:47.007Z,81.10
2019-02-19T19:37:17.728Z,81.20
2019-02-19T19:39:48.304Z,80.80
2019-02-19T19:42:30.175Z,81.00
2019-02-19T19:45:00.799Z,81.20
2019-02-19T19:47:31.364Z,81.50
2019-02-19T19:50:03.298Z,81.50
2019-02-19T19:53:22.823Z,81.50
2019-02-19T19:55:53.613Z,81.50
2019-02-19T19:58:24.200Z,81.40
2019-02-19T20:00:54.821Z,81.50
2019-02-19T20:03:26.038Z,81.80
2019-02-19T20:05:56.625Z,82.00
2019-02-19T20:08:27.234Z,82.00
2019-02-19T20:10:57.904Z,82.10
2019-02-19T20:13:31.560Z,82.50
2019-02-19T20:16:02.295Z,82.30
2019-02-19T20:18:42.253Z,82.50
2019-02-19T20:21:13.206Z,82.40
2019-02-19T20:23:43.922Z,82.40
2019-02-19T20:26:14.452Z,82.40
2019-02-19T20:28:45.138Z,82.30
2019-02-19T20:31:15.753Z,82.00
2019-02-19T20:33:46.347Z,81.80
2019-02-19T20:36:17.041Z,82.00
2019-02-19T20:38:47.737Z,82.20
2019-02-19T20:44:56.524Z,82.30
2019-02-19T20:47:46.048Z,82.50
2019-02-19T20:50:16.998Z,82.40
2019-02-19T20:52:47.738Z,82.40
2019-02-19T20:55:18.502Z,82.40
2019-02-19T20:57:49.098Z,82.70
2019-02-19T21:00:19.827Z,82.20
2019-02-19T21:02:50.536Z,82.40
2019-02-19T21:05:21.607Z,82.30
2019-02-19T21:07:52.135Z,82.00
2019-02-19T21:10:23.048Z,81.90
2019-02-19T21:12:53.717Z,82.30
2019-02-19T21:15:24.235Z,82.20
2019-02-19T21:17:55.036Z,82.10
2019-02-19T21:20:25.511Z,82.10
2019-02-19T21:23:00.440Z,82.10
2019-02-19T21:25:31.394Z,82.20
2019-02-19T21:28:02.028Z,82.10
2019-02-19T21:30:32.973Z,82.10
2019-02-19T21:33:03.698Z,81.80
2019-02-19T21:35:34.229Z,81.80
2019-02-19T21:39:00.581Z,81.80
2019-02-19T21:41:31.219Z,82.10
2019-02-19T21:44:01.873Z,82.10
2019-02-19T21:46:32.566Z,82.10
2019-02-19T21:49:03.097Z,82.40
2019-02-19T21:51:35.708Z,82.20
2019-02-19T21:54:06.311Z,82.70
2019-02-19T21:56:36.936Z,82.50
2019-02-19T21:59:07.893Z,82.30
2019-02-19T22:01:38.612Z,82.50
2019-02-19T22:04:09.255Z,82.60
2019-02-19T22:06:40.376Z,82.90
2019-02-19T22:09:11.031Z,82.90
2019-02-19T22:11:47.847Z,83.00
2019-02-19T22:14:18.440Z,83.10
2019-02-19T22:16:49.071Z,82.90
2019-02-19T22:19:19.771Z,83.10
2019-02-19T22:22:03.005Z,82.80
2019-02-19T22:24:36.437Z,82.80
2019-02-19T22:27:07.349Z,83.10
2019-02-19T22:29:37.917Z,83.30
2019-02-19T22:32:08.904Z,83.20
2019-02-19T22:34:39.582Z,83.40
2019-02-19T22:37:10.229Z,83.40
2019-02-19T22:39:40.917Z,83.40
2019-02-19T22:42:11.502Z,83.40
2019-02-19T22:44:42.217Z,83.20
2019-02-19T22:47:13.013Z,83.30
2019-02-19T22:49:43.703Z,83.30
2019-02-19T22:52:26.070Z,83.40
2019-02-19T22:55:07.596Z,83.50
2019-02-19T22:57:38.947Z,83.60
2019-02-19T23:00:19.203Z,83.70
2019-02-19T23:02:50.079Z,83.90
2019-02-19T23:05:20.634Z,84.10
2019-02-19T23:07:51.401Z,84.20
2019-02-19T23:10:22.197Z,84.20
2019-02-19T23:12:52.885Z,84.30
2019-02-19T23:15:23.383Z,84.30
2019-02-19T23:17:54.366Z,84.30
2019-02-19T23:20:25.078Z,84.40
2019-02-19T23:22:55.842Z,84.20
2019-02-19T23:25:26.529Z,84.20
2019-02-19T23:27:57.049Z,84.10
2019-02-19T23:33:17.864Z,84.10
2019-02-19T23:35:49.810Z,84.10
2019-02-19T23:38:34.669Z,84.20
2019-02-19T23:41:07.119Z,84.40
2019-02-19T23:43:37.237Z,84.40
2019-02-19T23:46:07.983Z,84.70
2019-02-19T23:48:38.699Z,84.70
2019-02-19T23:51:09.244Z,84.70
2019-02-19T23:53:53.945Z,84.70
2019-02-19T23:57:06.022Z,84.70
2019-02-19T23:59:36.793Z,84.70
